Time;durP1;ratioP1;P1;durP2;ratioP2;P2;SDS_P1;SDS_P2;PMS_P1;PMS_P2;Temp;Humidity;BMP_temperature;BMP_pressure;BME280_temperature;BME280_humidity;BME280_pressure;Samples;Min_cycle;Max_cycle;Signal;HPM_P1;HPM_P2
2021/12/17 00:00:46;;;;;;;12.15;7.07;;;;;;;5.15;100.00;101530.16;5058281;28;20025;-84
2021/12/17 00:03:20;;;;;;;18.05;7.78;;;;;;;5.21;100.00;101542.78;5050103;28;20104;-84
2021/12/17 00:08:17;;;;;;;17.02;8.20;;;;;;;5.04;100.00;101515.22;5064828;28;20394;-84
2021/12/17 00:10:46;;;;;;;18.08;8.23;;;;;;;5.06;100.00;101502.94;5046594;28;20093;-86
2021/12/17 00:13:16;;;;;;;11.90;7.97;;;;;;;5.28;100.00;101533.63;5044356;28;20099;-84
2021/12/17 00:15:43;;;;;;;16.83;7.65;;;;;;;4.90;100.00;101490.03;5048345;28;20035;-85
2021/12/17 00:18:21;;;;;;;20.00;9.07;;;;;;;4.96;100.00;101501.81;5061190;28;20032;-86
2021/12/17 00:48:39;;;;;;;12.38;7.13;;;;;;;4.92;100.00;101508.16;5063338;28;20166;-82
2021/12/17 00:53:36;;;;;;;15.85;7.80;;;;;;;4.89;100.00;101503.97;5055474;28;20181;-85
2021/12/17 00:56:02;;;;;;;10.32;6.95;;;;;;;4.92;100.00;101503.81;5060098;28;20493;-85
2021/12/17 00:58:28;;;;;;;9.10;5.78;;;;;;;4.92;100.00;101500.34;5062344;28;20029;-85
2021/12/17 01:00:54;;;;;;;12.20;6.50;;;;;;;4.88;100.00;101502.31;5062234;28;20031;-86
2021/12/17 01:03:20;;;;;;;13.23;6.60;;;;;;;4.88;100.00;101511.91;5061815;28;20163;-83
2021/12/17 01:05:46;;;;;;;10.82;6.15;;;;;;;4.95;100.00;101521.81;5047269;28;20029;-85
2021/12/17 01:08:12;;;;;;;14.60;7.68;;;;;;;4.81;100.00;101516.63;5072629;28;20036;-84
2021/12/17 01:10:48;;;;;;;12.95;6.95;;;;;;;4.80;100.00;101507.16;5049354;28;20025;-84
2021/12/17 01:13:14;;;;;;;11.48;6.03;;;;;;;4.71;100.00;101500.75;5048275;28;20045;-85
2021/12/17 01:15:42;;;;;;;13.88;6.60;;;;;;;4.72;100.00;101503.28;5076380;28;20111;-84
2021/12/17 01:18:14;;;;;;;16.50;8.00;;;;;;;4.85;100.00;101516.38;5067322;28;20033;-83
2021/12/17 01:36:44;;;;;;;10.95;5.72;;;;;;;4.62;100.00;101488.31;5071987;28;20033;-85
2021/12/17 01:42:25;;;;;;;12.25;6.07;;;;;;;4.64;100.00;101515.91;5051534;28;20526;-83
2021/12/17 01:44:43;;;;;;;11.63;6.20;;;;;;;4.58;100.00;101524.09;5054456;28;20467;-85
2021/12/17 01:47:15;;;;;;;13.82;6.15;;;;;;;4.60;100.00;101530.03;5068702;28;20079;-82
2021/12/17 02:00:37;;;;;;;14.15;5.78;;;;;;;4.41;100.00;101502.56;5074633;28;20399;-85
2021/12/17 02:03:05;;;;;;;13.70;6.05;;;;;;;4.65;100.00;101535.78;5074916;28;20070;-84
2021/12/17 02:05:32;;;;;;;11.10;6.05;;;;;;;4.67;100.00;101533.13;5062491;28;20491;-85
2021/12/17 02:07:59;;;;;;;13.50;5.38;;;;;;;4.61;100.00;101525.66;5050862;28;20475;-84
2021/12/17 02:21:20;;;;;;;16.10;6.63;;;;;;;4.68;100.00;101530.41;5056446;28;20039;-84
2021/12/17 02:31:47;;;;;;;10.50;5.95;;;;;;;4.74;100.00;101538.78;5057628;28;20092;-84
2021/12/17 02:36:53;;;;;;;14.95;6.82;;;;;;;4.61;100.00;101523.91;5055717;28;20560;-87
2021/12/17 02:39:55;;;;;;;9.90;6.55;;;;;;;4.58;100.00;101526.69;5056933;28;20029;-84
2021/12/17 02:47:39;;;;;;;13.32;6.78;;;;;;;4.63;100.00;101509.03;5057417;28;20033;-83
2021/12/17 02:50:07;;;;;;;14.40;6.95;;;;;;;4.50;100.00;101497.72;5048137;28;20115;-85
2021/12/17 02:52:37;;;;;;;13.38;6.22;;;;;;;4.58;100.00;101524.91;5057971;28;20037;-85
2021/12/17 02:55:05;;;;;;;14.68;6.22;;;;;;;4.50;100.00;101503.75;5072980;28;20060;-84
2021/12/17 02:57:31;;;;;;;14.25;6.40;;;;;;;4.38;100.00;101488.88;5047561;28;20037;-84
2021/12/17 02:59:59;;;;;;;14.27;6.85;;;;;;;4.56;100.00;101520.75;5074035;28;20036;-86
2021/12/17 03:02:29;;;;;;;11.80;6.95;;;;;;;4.39;100.00;101507.00;5076708;28;20040;-85
2021/12/17 03:04:55;;;;;;;16.02;7.10;;;;;;;4.41;100.00;101512.09;5065627;28;20090;-86
2021/12/17 03:07:21;;;;;;;15.30;7.10;;;;;;;4.36;100.00;101512.41;5042920;28;20082;-85
2021/12/17 03:12:30;;;;;;;16.95;6.28;;;;;;;4.11;100.00;101505.22;5063471;28;20040;-84
2021/12/17 03:15:04;;;;;;;15.23;6.78;;;;;;;4.31;100.00;101526.59;5038965;28;20056;-84
2021/12/17 03:23:59;;;;;;;17.35;7.55;;;;;;;4.42;100.00;101512.03;5054579;28;21641;-84
2021/12/17 03:25:54;;;;;;;13.70;7.85;;;;;;;4.51;100.00;101530.59;5059820;28;20053;-85
2021/12/17 03:28:21;;;;;;;15.00;7.78;;;;;;;4.38;100.00;101501.91;5070634;28;20028;-85
2021/12/17 03:30:48;;;;;;;21.10;9.27;;;;;;;4.43;100.00;101516.28;5066805;28;20548;-86
2021/12/17 03:33:13;;;;;;;22.15;8.30;;;;;;;4.41;100.00;101507.75;5059373;28;20025;-83
2021/12/17 03:35:39;;;;;;;19.83;7.72;;;;;;;4.57;100.00;101530.25;5061672;28;20033;-86
2021/12/17 03:38:07;;;;;;;13.18;7.20;;;;;;;4.51;100.00;101514.97;5068799;28;20037;-86
2021/12/17 03:40:33;;;;;;;17.15;7.97;;;;;;;4.48;100.00;101520.38;5074021;28;20031;-85
2021/12/17 03:43:11;;;;;;;13.05;7.60;;;;;;;4.43;100.00;101516.28;5048143;28;20031;-85
2021/12/17 03:45:37;;;;;;;15.98;8.07;;;;;;;4.52;100.00;101527.06;5042023;28;20029;-86
2021/12/17 03:48:03;;;;;;;15.43;8.18;;;;;;;4.41;100.00;101520.75;5017268;28;20041;-86
2021/12/17 03:50:33;;;;;;;19.40;8.43;;;;;;;4.41;100.00;101514.72;5067573;28;20059;-87
2021/12/17 03:52:59;;;;;;;16.02;7.80;;;;;;;4.46;100.00;101535.25;5061501;28;20033;-85
2021/12/17 03:55:25;;;;;;;14.00;7.72;;;;;;;4.40;100.00;101520.84;5050542;28;20473;-85
2021/12/17 03:57:51;;;;;;;16.30;7.72;;;;;;;4.43;100.00;101518.91;5064757;28;20081;-86
2021/12/17 04:00:20;;;;;;;17.92;8.45;;;;;;;4.31;100.00;101492.81;5057381;28;20056;-86
2021/12/17 04:02:46;;;;;;;18.80;7.97;;;;;;;4.54;100.00;101514.81;5056956;28;20064;-86
2021/12/17 04:05:12;;;;;;;16.10;7.70;;;;;;;4.54;100.00;101525.22;5070408;28;20036;-85
2021/12/17 04:07:38;;;;;;;20.45;8.15;;;;;;;4.30;100.00;101497.16;5046840;28;20035;-85
2021/12/17 04:10:04;;;;;;;14.68;8.63;;;;;;;4.45;100.00;101515.38;5066219;28;20471;-84
2021/12/17 04:15:15;;;;;;;18.63;8.55;;;;;;;4.40;100.00;101523.44;5062312;28;20087;-84
2021/12/17 04:17:45;;;;;;;15.25;7.97;;;;;;;4.36;100.00;101517.59;5060146;28;20029;-83
2021/12/17 04:20:11;;;;;;;18.00;8.85;;;;;;;4.47;100.00;101536.91;5061602;28;20056;-83
2021/12/17 04:22:37;;;;;;;17.90;8.05;;;;;;;4.49;100.00;101522.03;5041671;28;20462;-83
2021/12/17 04:25:04;;;;;;;21.27;8.73;;;;;;;4.50;100.00;101521.97;5059655;28;20496;-84
2021/12/17 04:27:29;;;;;;;25.50;10.15;;;;;;;4.54;100.00;101525.22;5045918;28;20092;-84
2021/12/17 04:29:56;;;;;;;18.10;8.25;;;;;;;4.62;100.00;101536.00;5060467;28;20140;-83
2021/12/17 04:32:22;;;;;;;17.23;7.95;;;;;;;4.43;100.00;101508.50;5042870;28;20061;-83
2021/12/17 04:34:48;;;;;;;18.67;9.07;;;;;;;4.44;100.00;101519.75;5045547;28;20071;-84
2021/12/17 04:37:14;;;;;;;23.00;9.05;;;;;;;4.48;100.00;101507.38;5061901;28;20198;-84
2021/12/17 04:39:40;;;;;;;18.27;8.80;;;;;;;4.61;100.00;101526.50;5044388;28;20039;-84
2021/12/17 04:42:14;;;;;;;20.05;8.50;;;;;;;4.51;100.00;101521.03;5058338;28;20025;-83
2021/12/17 04:44:47;;;;;;;25.40;9.35;;;;;;;4.63;100.00;101518.63;5059909;28;20552;-84
2021/12/17 04:57:58;;;;;;;22.17;9.60;;;;;;;4.33;100.00;101512.59;5058685;28;20037;-85
2021/12/17 05:00:27;;;;;;;16.65;8.40;;;;;;;4.37;100.00;101521.88;5044200;28;20038;-84
2021/12/17 05:02:55;;;;;;;20.30;10.45;;;;;;;4.20;100.00;101498.66;5064957;28;20108;-84
2021/12/17 05:05:28;;;;;;;18.63;9.70;;;;;;;4.26;100.00;101527.72;5060123;28;20368;-84
2021/12/17 05:08:03;;;;;;;19.27;9.75;;;;;;;4.08;100.00;101515.81;5060440;28;20029;-85
2021/12/17 05:18:42;;;;;;;17.70;8.95;;;;;;;3.59;100.00;101530.72;5061746;28;20090;-84
2021/12/17 05:21:09;;;;;;;25.77;9.73;;;;;;;3.50;100.00;101532.06;5058269;28;20032;-85
2021/12/17 05:23:41;;;;;;;19.55;9.82;;;;;;;3.46;100.00;101530.56;5062578;28;20079;-84
2021/12/17 05:26:16;;;;;;;17.08;8.18;;;;;;;3.47;100.00;101527.06;5059702;28;20029;-84
2021/12/17 05:28:42;;;;;;;16.52;9.48;;;;;;;3.46;100.00;101527.16;5050532;28;20032;-84
2021/12/17 05:31:08;;;;;;;16.52;8.52;;;;;;;3.51;100.00;101546.72;5063819;28;20025;-84
2021/12/17 05:33:34;;;;;;;17.98;8.65;;;;;;;3.45;100.00;101547.06;5062568;28;20355;-84
2021/12/17 05:35:59;;;;;;;18.50;8.95;;;;;;;3.34;100.00;101518.25;5065243;28;20037;-83
2021/12/17 05:38:27;;;;;;;21.02;9.85;;;;;;;3.60;100.00;101544.53;5065701;28;20025;-83
2021/12/17 05:40:53;;;;;;;23.80;10.45;;;;;;;3.50;100.00;101539.03;5064045;28;20048;-82
2021/12/17 05:43:19;;;;;;;27.60;10.23;;;;;;;3.49;100.00;101543.38;5049140;28;20398;-84
2021/12/17 05:48:23;;;;;;;19.50;9.75;;;;;;;3.42;100.00;101529.06;5061633;28;20037;-83
2021/12/17 05:50:51;;;;;;;20.92;10.20;;;;;;;3.50;100.00;101547.66;5047551;28;20040;-84
2021/12/17 05:53:17;;;;;;;25.05;10.77;;;;;;;3.49;100.00;101552.94;5067681;28;20033;-82
2021/12/17 05:55:43;;;;;;;23.83;10.88;;;;;;;3.42;100.00;101526.47;5065859;28;20395;-83
2021/12/17 05:58:10;;;;;;;28.30;11.55;;;;;;;3.63;100.00;101549.56;5066951;28;20475;-84
2021/12/17 06:00:38;;;;;;;21.02;10.73;;;;;;;3.67;100.00;101525.94;5064194;28;20025;-84
2021/12/17 06:03:04;;;;;;;23.50;9.98;;;;;;;3.91;100.00;101553.16;5048957;28;20028;-84
2021/12/17 06:05:30;;;;;;;26.33;11.95;;;;;;;3.83;100.00;101541.47;5067113;28;20029;-83
2021/12/17 06:07:57;;;;;;;28.23;12.90;;;;;;;3.93;100.00;101546.97;5063680;28;20039;-84
2021/12/17 06:10:22;;;;;;;30.77;12.23;;;;;;;3.99;100.00;101536.22;5071212;28;20029;-83
2021/12/17 06:12:48;;;;;;;24.55;12.65;;;;;;;4.00;100.00;101537.06;5064568;28;20044;-84
2021/12/17 06:15:17;;;;;;;25.73;12.93;;;;;;;4.02;100.00;101544.75;5066540;28;20097;-83
2021/12/17 06:17:44;;;;;;;23.60;11.43;;;;;;;4.03;100.00;101562.88;5063674;28;20033;-83
2021/12/17 06:20:13;;;;;;;24.67;12.95;;;;;;;4.12;100.00;101551.91;5043115;28;20033;-83
2021/12/17 06:22:43;;;;;;;27.40;13.13;;;;;;;4.19;100.00;101564.56;5065824;28;20028;-84
2021/12/17 06:25:10;;;;;;;36.00;12.80;;;;;;;4.25;100.00;101569.41;5061310;28;20071;-83
2021/12/17 06:27:36;;;;;;;21.92;11.20;;;;;;;4.13;100.00;101543.22;5062562;28;20497;-83
2021/12/17 06:30:05;;;;;;;29.10;13.10;;;;;;;4.21;100.00;101554.91;5046956;28;20077;-84
2021/12/17 06:32:31;;;;;;;31.88;13.18;;;;;;;4.20;100.00;101561.88;5061078;28;20037;-84
2021/12/17 06:34:56;;;;;;;30.35;11.93;;;;;;;4.19;100.00;101555.00;5063785;28;20020;-84
2021/12/17 06:37:22;;;;;;;26.60;12.68;;;;;;;4.23;100.00;101568.66;5064415;28;20029;-84
2021/12/17 06:39:48;;;;;;;26.33;12.05;;;;;;;4.24;100.00;101542.59;5063563;28;20040;-84
2021/12/17 06:42:15;;;;;;;28.75;11.27;;;;;;;4.40;100.00;101560.69;5065264;28;20434;-84
2021/12/17 06:44:42;;;;;;;29.67;12.45;;;;;;;4.35;100.00;101570.53;5058363;28;20052;-84
2021/12/17 06:47:25;;;;;;;25.35;13.40;;;;;;;4.27;100.00;101565.78;5061426;28;20029;-85
2021/12/17 07:00:43;;;;;;;32.83;14.35;;;;;;;4.67;100.00;101557.34;5063952;28;20044;-84
2021/12/17 07:05:59;;;;;;;27.23;13.88;;;;;;;4.78;100.00;101551.47;5062626;28;20055;-84
2021/12/17 07:10:56;;;;;;;28.50;13.85;;;;;;;4.96;100.00;101572.94;5057030;28;20029;-85
2021/12/17 07:22:24;;;;;;;21.58;11.55;;;;;;;4.90;100.00;101578.50;5062666;28;20028;-85
2021/12/17 07:39:51;;;;;;;31.92;13.27;;;;;;;4.55;100.00;101574.53;5062425;28;20465;-83
2021/12/17 07:42:17;;;;;;;24.08;12.75;;;;;;;4.54;100.00;101583.28;5061945;28;20032;-84
2021/12/17 07:44:42;;;;;;;25.48;12.00;;;;;;;4.53;100.00;101579.00;5057791;28;20391;-84
2021/12/17 07:47:08;;;;;;;28.83;12.27;;;;;;;4.68;100.00;101592.03;5059582;28;20055;-87
2021/12/17 07:49:33;;;;;;;26.60;11.77;;;;;;;4.56;100.00;101570.19;5059880;28;20060;-87
2021/12/17 07:51:59;;;;;;;24.75;12.13;;;;;;;4.77;100.00;101582.81;5061609;28;20025;-85
2021/12/17 07:54:25;;;;;;;20.38;12.68;;;;;;;4.89;100.00;101602.06;5048395;28;20029;-88
2021/12/17 07:56:51;;;;;;;22.20;12.40;;;;;;;4.85;100.00;101597.03;5058930;28;20094;-85
2021/12/17 07:59:16;;;;;;;25.30;12.35;;;;;;;5.03;100.00;101593.38;5043090;28;20025;-85
2021/12/17 08:01:42;;;;;;;25.80;12.55;;;;;;;5.02;100.00;101599.53;5042688;28;20033;-85
2021/12/17 08:04:10;;;;;;;22.00;10.85;;;;;;;5.07;100.00;101606.13;5044014;28;20033;-84
2021/12/17 08:06:37;;;;;;;21.77;11.10;;;;;;;4.86;100.00;101592.66;5044738;28;20482;-84
2021/12/17 08:09:04;;;;;;;26.85;12.07;;;;;;;4.75;100.00;101589.88;5060804;28;20033;-85
2021/12/17 08:11:37;;;;;;;28.10;12.38;;;;;;;4.80;100.00;101608.66;5060865;28;20390;-85
2021/12/17 08:14:03;;;;;;;22.90;12.63;;;;;;;4.51;100.00;101580.00;5046248;28;20040;-85
2021/12/17 08:16:32;;;;;;;23.63;13.25;;;;;;;4.46;100.00;101602.88;5058095;28;20044;-83
2021/12/17 08:23:09;;;;;;;18.65;10.25;;;;;;;4.32;100.00;101604.50;5062365;28;20024;-85
2021/12/17 08:28:28;;;;;;;24.15;11.65;;;;;;;4.31;100.00;101613.22;5063595;28;20096;-87
2021/12/17 08:30:54;;;;;;;24.25;10.98;;;;;;;4.26;100.00;101610.06;5047283;28;20032;-86
2021/12/17 08:33:21;;;;;;;27.75;10.88;;;;;;;4.28;100.00;101610.81;5060351;28;20052;-83
2021/12/17 08:35:47;;;;;;;24.55;11.73;;;;;;;4.50;100.00;101635.56;5064032;28;20024;-84
2021/12/17 08:38:13;;;;;;;27.38;12.27;;;;;;;4.35;100.00;101600.91;5063402;28;20031;-84
2021/12/17 08:40:39;;;;;;;21.98;11.82;;;;;;;4.44;100.00;101613.38;5058201;28;20029;-85
2021/12/17 08:43:05;;;;;;;26.77;12.85;;;;;;;4.49;100.00;101626.09;5059080;28;20680;-85
2021/12/17 08:45:31;;;;;;;23.15;10.82;;;;;;;4.54;100.00;101629.28;5045314;28;20040;-84
2021/12/17 08:47:57;;;;;;;27.08;14.43;;;;;;;4.40;100.00;101620.50;5060563;28;20047;-85
2021/12/17 08:50:23;;;;;;;26.45;14.57;;;;;;;4.31;100.00;101634.03;5062908;28;20028;-86
2021/12/17 08:52:49;;;;;;;23.42;13.48;;;;;;;4.09;100.00;101613.66;5040362;28;20057;-85
2021/12/17 08:55:15;;;;;;;27.25;14.10;;;;;;;4.17;100.00;101642.63;5062962;28;20071;-86
2021/12/17 08:57:41;;;;;;;25.10;12.73;;;;;;;3.97;100.00;101630.78;5063456;28;20147;-84
2021/12/17 09:00:10;;;;;;;29.80;14.68;;;;;;;3.95;100.00;101633.47;5059248;28;20033;-85
2021/12/17 09:02:37;;;;;;;28.17;14.73;;;;;;;4.03;100.00;101648.63;5058530;28;20029;-87
2021/12/17 09:05:07;;;;;;;32.30;18.15;;;;;;;3.94;100.00;101652.59;5045172;28;20116;-87
2021/12/17 09:07:32;;;;;;;35.65;19.70;;;;;;;3.85;100.00;101646.13;5058539;28;20101;-86
2021/12/17 09:09:58;;;;;;;41.10;19.92;;;;;;;3.81;100.00;101647.25;5044948;28;20410;-87
2021/12/17 09:12:24;;;;;;;39.97;21.70;;;;;;;3.85;100.00;101653.13;5062191;28;20120;-86
2021/12/17 09:14:51;;;;;;;41.70;21.98;;;;;;;3.69;100.00;101643.56;5044832;28;20048;-87
2021/12/17 09:17:21;;;;;;;34.28;19.50;;;;;;;3.65;100.00;101629.09;5058133;28;20052;-86
2021/12/17 09:19:50;;;;;;;33.65;18.23;;;;;;;3.75;100.00;101650.19;5062937;28;20068;-86
2021/12/17 09:22:24;;;;;;;33.50;16.80;;;;;;;3.63;100.00;101633.50;5039919;28;20028;-84
2021/12/17 09:24:49;;;;;;;29.55;15.55;;;;;;;3.80;100.00;101660.31;5061258;28;20068;-85
2021/12/17 09:27:15;;;;;;;30.95;14.90;;;;;;;3.68;100.00;101643.63;5062826;28;20067;-85
2021/12/17 09:29:41;;;;;;;29.13;15.65;;;;;;;3.81;100.00;101654.19;5062928;28;20033;-87
2021/12/17 09:32:07;;;;;;;27.15;15.68;;;;;;;3.77;100.00;101653.53;5064687;28;20037;-86
2021/12/17 09:34:33;;;;;;;35.58;17.80;;;;;;;3.83;100.00;101670.53;5058361;28;20033;-87
2021/12/17 09:36:58;;;;;;;27.63;16.10;;;;;;;3.78;100.00;101665.59;5039750;28;20033;-87
2021/12/17 09:39:24;;;;;;;30.67;16.83;;;;;;;3.81;100.00;101670.63;5043515;28;20025;-87
2021/12/17 09:41:52;;;;;;;30.98;17.58;;;;;;;3.77;100.00;101650.09;5063047;28;20029;-88
2021/12/17 09:44:19;;;;;;;27.98;16.13;;;;;;;3.80;100.00;101650.75;5045448;28;20108;-87
2021/12/17 09:46:50;;;;;;;32.60;16.83;;;;;;;3.76;100.00;101627.63;5046029;28;20041;-88
2021/12/17 09:49:18;;;;;;;33.97;15.50;;;;;;;4.05;100.00;101664.97;5066377;28;20031;-88
2021/12/17 09:51:47;;;;;;;34.17;17.02;;;;;;;4.00;100.00;101648.81;5048788;28;20032;-89
2021/12/17 09:54:13;;;;;;;48.03;19.73;;;;;;;4.27;100.00;101675.00;5054987;28;20036;-89
2021/12/17 09:56:39;;;;;;;40.70;18.02;;;;;;;4.37;100.00;101664.91;5046167;28;20033;-86
2021/12/17 09:59:04;;;;;;;41.22;19.98;;;;;;;4.48;100.00;101676.44;5059106;28;20116;-89
2021/12/17 10:01:31;;;;;;;52.30;20.58;;;;;;;4.48;100.00;101674.69;5045668;28;20047;-88
2021/12/17 10:04:15;;;;;;;53.17;21.90;;;;;;;4.58;100.00;101677.59;5046306;28;20024;-87
2021/12/17 10:06:41;;;;;;;50.78;21.90;;;;;;;4.54;100.00;101666.50;5065981;28;20039;-89
2021/12/17 10:09:07;;;;;;;51.35;22.98;;;;;;;4.61;100.00;101672.19;5064175;28;20107;-89
2021/12/17 10:11:33;;;;;;;54.22;21.50;;;;;;;4.62;100.00;101673.88;5048154;28;20047;-89
2021/12/17 10:14:18;;;;;;;45.28;21.58;;;;;;;4.71;100.00;101682.91;5057576;28;20052;-86
2021/12/17 10:16:43;;;;;;;42.63;21.95;;;;;;;4.61;100.00;101666.13;5061190;28;20017;-90
2021/12/17 10:19:09;;;;;;;49.20;23.83;;;;;;;4.69;100.00;101674.34;5065786;28;20108;-88
2021/12/17 10:21:38;;;;;;;47.13;22.20;;;;;;;4.70;100.00;101682.03;5070305;28;20025;-85
2021/12/17 10:24:07;;;;;;;50.05;22.52;;;;;;;4.75;100.00;101691.38;5071923;28;20032;-87
2021/12/17 10:26:41;;;;;;;46.13;21.55;;;;;;;4.77;100.00;101679.09;5066618;28;20024;-89
2021/12/17 10:29:07;;;;;;;47.40;22.98;;;;;;;4.71;100.00;101675.91;5058868;28;20020;-87
2021/12/17 10:31:37;;;;;;;47.42;21.77;;;;;;;4.61;100.00;101645.31;5057949;28;20466;-89
2021/12/17 10:34:04;;;;;;;41.78;19.73;;;;;;;4.86;100.00;101681.13;5074184;28;20047;-87
2021/12/17 10:36:31;;;;;;;43.88;19.90;;;;;;;4.79;100.00;101674.63;5068763;28;20048;-88
2021/12/17 10:38:57;;;;;;;44.65;21.00;;;;;;;4.89;100.00;101674.94;5061145;28;20021;-86
2021/12/17 10:41:26;;;;;;;40.63;20.13;;;;;;;4.93;100.00;101671.19;5075593;28;20043;-85
2021/12/17 10:43:58;;;;;;;42.25;20.25;;;;;;;4.88;100.00;101674.06;5081161;28;20390;-86
2021/12/17 10:46:30;;;;;;;38.83;20.63;;;;;;;4.90;100.00;101677.41;5078167;28;20099;-84
2021/12/17 10:54:14;;;;;;;44.08;21.25;;;;;;;4.99;100.00;101676.03;5077929;28;20032;-88
2021/12/17 10:56:52;;;;;;;44.97;21.65;;;;;;;4.91;100.00;101658.28;5060514;28;20056;-85
2021/12/17 10:59:26;;;;;;;45.50;21.40;;;;;;;4.89;100.00;101661.91;5077152;28;20394;-88
2021/12/17 11:01:59;;;;;;;47.42;25.63;;;;;;;4.95;100.00;101670.19;5080184;28;20028;-87
2021/12/17 11:04:37;;;;;;;47.47;24.92;;;;;;;4.92;100.00;101670.38;5077684;28;20060;-88
2021/12/17 11:07:05;;;;;;;49.80;23.17;;;;;;;4.92;100.00;101680.78;5077687;28;20040;-84
2021/12/17 11:10:01;;;;;;;44.10;21.00;;;;;;;4.98;100.00;101677.81;5078947;28;20033;-88
2021/12/17 11:12:27;;;;;;;41.17;21.38;;;;;;;5.01;100.00;101668.97;5077291;28;20052;-88
2021/12/17 11:15:14;;;;;;;40.15;20.20;;;;;;;4.94;100.00;101655.50;5080769;28;20032;-86
2021/12/17 11:17:43;;;;;;;41.30;20.77;;;;;;;4.99;100.00;101658.66;5044156;28;20046;-86
2021/12/17 11:20:18;;;;;;;39.10;22.33;;;;;;;4.89;100.00;101654.94;5063205;28;20033;-87
2021/12/17 11:22:46;;;;;;;41.28;20.55;;;;;;;5.00;100.00;101665.53;5050121;28;20028;-88
2021/12/17 11:25:15;;;;;;;44.17;22.92;;;;;;;4.82;100.00;101638.88;5076114;28;20386;-88
2021/12/17 11:27:41;;;;;;;51.70;24.52;;;;;;;4.88;100.00;101647.22;5059656;28;20032;-85
2021/12/17 11:30:12;;;;;;;58.75;25.75;;;;;;;4.94;100.00;101654.66;5077589;28;20044;-87
2021/12/17 11:32:38;;;;;;;48.40;25.25;;;;;;;4.97;100.00;101657.91;5076963;28;20033;-86
2021/12/17 11:35:05;;;;;;;53.97;26.65;;;;;;;4.98;100.00;101656.13;5060308;28;20375;-86
2021/12/17 11:37:31;;;;;;;50.55;26.35;;;;;;;4.84;100.00;101629.19;5076450;28;20040;-87
2021/12/17 11:40:01;;;;;;;45.45;24.17;;;;;;;4.87;100.00;101633.38;5077212;28;20033;-85
2021/12/17 11:43:09;;;;;;;51.70;24.60;;;;;;;5.00;100.00;101654.28;5075838;28;20130;-86
2021/12/17 11:45:35;;;;;;;46.92;23.85;;;;;;;5.00;100.00;101642.09;5076125;28;20032;-87
2021/12/17 11:48:14;;;;;;;49.70;23.67;;;;;;;4.99;100.00;101656.06;5066057;28;20060;-86
2021/12/17 11:50:40;;;;;;;47.55;25.42;;;;;;;4.85;100.00;101623.06;5055134;28;20032;-86
2021/12/17 11:53:23;;;;;;;46.28;25.30;;;;;;;5.04;100.00;101647.97;5055943;28;20062;-86
2021/12/17 11:56:00;;;;;;;43.90;24.27;;;;;;;4.98;100.00;101635.31;5056744;28;20554;-85
2021/12/17 11:58:53;;;;;;;39.80;22.38;;;;;;;5.09;100.00;101640.72;5058544;28;20546;-85
2021/12/17 12:01:48;;;;;;;38.35;21.35;;;;;;;5.10;100.00;101647.59;5058927;28;20158;-87
2021/12/17 12:04:33;;;;;;;41.80;22.13;;;;;;;5.17;100.00;101640.25;5075041;28;20090;-87
2021/12/17 12:07:04;;;;;;;45.40;22.05;;;;;;;5.14;100.00;101641.25;5075479;28;20064;-85
2021/12/17 12:10:21;;;;;;;41.92;22.90;;;;;;;5.15;100.00;101632.50;5058165;28;20036;-86
2021/12/17 12:12:46;;;;;;;44.20;23.35;;;;;;;5.15;100.00;101637.72;5063673;28;20047;-86
2021/12/17 12:15:22;;;;;;;48.55;24.08;;;;;;;5.15;100.00;101635.13;5054831;28;20479;-85
2021/12/17 12:17:57;;;;;;;47.15;25.23;;;;;;;5.15;100.00;101635.13;5056197;28;20116;-85
2021/12/17 12:20:44;;;;;;;43.70;25.00;;;;;;;5.16;100.00;101638.56;5062882;28;20029;-86
2021/12/17 12:23:31;;;;;;;44.47;24.83;;;;;;;5.19;100.00;101634.94;5058360;28;20094;-85
2021/12/17 12:26:03;;;;;;;49.40;23.67;;;;;;;5.20;100.00;101636.59;5074779;28;20478;-86
2021/12/17 12:28:47;;;;;;;40.03;22.83;;;;;;;5.24;100.00;101643.31;5074822;28;20043;-87
2021/12/17 12:31:13;;;;;;;46.65;22.60;;;;;;;5.22;100.00;101635.59;5076540;28;20490;-88
2021/12/17 12:33:58;;;;;;;39.67;20.30;;;;;;;5.21;100.00;101639.13;5063281;28;20032;-87
2021/12/17 12:36:45;;;;;;;37.00;20.45;;;;;;;5.22;100.00;101637.38;5057712;28;20100;-87
2021/12/17 12:39:32;;;;;;;37.50;19.13;;;;;;;5.16;100.00;101615.13;5068586;28;20091;-86
2021/12/17 12:42:19;;;;;;;34.75;18.15;;;;;;;5.06;100.00;101614.88;5056688;28;20082;-89
2021/12/17 12:44:44;;;;;;;35.78;17.98;;;;;;;5.25;100.00;101639.78;5059837;28;20466;-89
2021/12/17 12:47:31;;;;;;;33.97;18.02;;;;;;;5.24;100.00;101640.72;5055776;28;20064;-89
2021/12/17 12:50:07;;;;;;;42.40;20.27;;;;;;;5.27;100.00;101633.53;5068861;28;20036;-89
2021/12/17 12:52:36;;;;;;;48.75;22.38;;;;;;;5.29;100.00;101642.06;5052154;28;20040;-88
2021/12/17 12:55:14;;;;;;;45.15;25.08;;;;;;;5.34;100.00;101643.56;5046255;28;20512;-88
2021/12/17 12:58:27;;;;;;;41.17;21.95;;;;;;;5.36;100.00;101639.09;5058361;28;20447;-88
2021/12/17 13:00:57;;;;;;;47.83;25.33;;;;;;;5.27;100.00;101617.06;5046687;28;20079;-89
2021/12/17 13:03:26;;;;;;;39.30;22.58;;;;;;;5.47;100.00;101635.81;5051453;28;20033;-89
2021/12/17 13:05:52;;;;;;;50.95;28.75;;;;;;;5.46;100.00;101631.53;5052225;28;20025;-88
2021/12/17 13:08:20;;;;;;;44.42;27.92;;;;;;;5.52;100.00;101621.59;5048368;28;20032;-89
2021/12/17 13:10:50;;;;;;;53.10;31.10;;;;;;;5.49;100.00;101606.13;5071086;28;20051;-89
2021/12/17 13:23:49;;;;;;;51.42;28.27;;;;;;;6.26;100.00;101620.34;5060234;28;20040;-87
2021/12/17 13:26:17;;;;;;;55.37;27.60;;;;;;;6.52;100.00;101610.75;5068078;28;20028;-86
2021/12/17 13:29:05;;;;;;;54.50;30.35;;;;;;;6.64;100.00;101608.28;5056156;28;20770;-88
2021/12/17 13:31:58;;;;;;;58.17;31.95;;;;;;;6.82;100.00;101627.03;5047739;28;20379;-88
2021/12/17 13:34:32;;;;;;;60.67;31.45;;;;;;;6.85;100.00;101625.06;5066970;28;20045;-88
2021/12/17 13:37:19;;;;;;;62.83;34.53;;;;;;;6.98;100.00;101619.81;5065962;28;20112;-89
2021/12/17 13:39:54;;;;;;;62.05;34.13;;;;;;;7.05;100.00;101622.84;5045966;28;20025;-90
2021/12/17 13:42:36;;;;;;;68.32;34.65;;;;;;;6.98;100.00;101616.38;5049088;28;20490;-89
2021/12/17 13:45:08;;;;;;;53.67;30.25;;;;;;;6.87;100.00;101609.28;5062499;28;20055;-87
2021/12/17 13:47:41;;;;;;;52.47;30.05;;;;;;;6.82;100.00;101609.63;5068467;28;20060;-92
2021/12/17 13:50:22;;;;;;;49.50;27.33;;;;;;;6.86;100.00;101607.59;5053699;28;20098;-91
2021/12/17 13:52:54;;;;;;;50.88;27.52;;;;;;;6.54;100.00;101563.69;5055509;28;20374;-89
2021/12/17 13:56:14;;;;;;;50.80;27.67;;;;;;;6.91;100.00;101589.03;5058003;28;20036;-87
2021/12/17 13:58:34;;;;;;;53.17;28.55;;;;;;;6.76;100.00;101590.94;5066380;28;20397;-90
2021/12/17 14:01:01;;;;;;;55.63;28.48;;;;;;;6.61;100.00;101580.59;5062587;28;20078;-89
2021/12/17 14:03:34;;;;;;;53.72;29.25;;;;;;;6.46;100.00;101566.84;5052525;28;20029;-88
2021/12/17 14:09:01;;;;;;;56.53;29.63;;;;;;;6.75;100.00;101589.25;5061716;28;20139;-89
2021/12/17 14:11:32;;;;;;;49.95;28.73;;;;;;;6.51;100.00;101569.97;5060532;28;20032;-89
2021/12/17 14:14:28;;;;;;;58.15;31.73;;;;;;;6.25;100.00;101559.53;5069076;28;20072;-89
2021/12/17 14:17:03;;;;;;;66.13;35.38;;;;;;;6.31;100.00;101571.34;5079590;28;20074;-88
2021/12/17 14:19:50;;;;;;;65.82;34.97;;;;;;;6.38;100.00;101569.97;5058733;28;20036;-88
2021/12/17 14:22:26;;;;;;;59.45;32.28;;;;;;;6.56;100.00;101567.03;5058110;28;20085;-88
2021/12/17 14:25:24;;;;;;;60.47;30.60;;;;;;;6.51;100.00;101608.28;5060513;28;20036;-89
2021/12/17 14:27:51;;;;;;;51.33;28.65;;;;;;;6.34;100.00;101570.25;5067628;28;20036;-87
2021/12/17 14:30:35;;;;;;;67.43;33.38;;;;;;;6.36;100.00;101584.88;5066353;28;20029;-89
2021/12/17 14:33:18;;;;;;;60.30;31.58;;;;;;;6.32;100.00;101587.81;5070877;28;20040;-88
2021/12/17 14:35:52;;;;;;;66.32;34.65;;;;;;;6.27;100.00;101581.13;5066642;28;20024;-87